sensor_id;sensor_type;location;lat;lon;timestamp;P1;durP1;ratioP1;P2;durP2;ratioP2
49396;SDS011;35615;41.410;2.194;2023-01-31T00:02:04;9.18;;;5.50;;
49396;SDS011;35615;41.410;2.194;2023-01-31T00:04:34;8.70;;;5.82;;
49396;SDS011;35615;41.410;2.194;2023-01-31T00:07:28;10.52;;;6.30;;
49396;SDS011;35615;41.410;2.194;2023-01-31T00:09:57;12.73;;;6.53;;
49396;SDS011;35615;41.410;2.194;2023-01-31T00:12:25;10.00;;;5.75;;
49396;SDS011;35615;41.410;2.194;2023-01-31T00:15:01;10.65;;;6.47;;
49396;SDS011;35615;41.410;2.194;2023-01-31T00:17:33;10.43;;;5.93;;
49396;SDS011;35615;41.410;2.194;2023-01-31T00:20:01;11.75;;;6.22;;
49396;SDS011;35615;41.410;2.194;2023-01-31T00:22:47;12.90;;;6.85;;
49396;SDS011;35615;41.410;2.194;2023-01-31T00:25:16;11.27;;;6.20;;
49396;SDS011;35615;41.410;2.194;2023-01-31T00:27:50;13.13;;;6.85;;
49396;SDS011;35615;41.410;2.194;2023-01-31T00:30:25;12.23;;;6.43;;
49396;SDS011;35615;41.410;2.194;2023-01-31T00:32:52;13.98;;;6.13;;
49396;SDS011;35615;41.410;2.194;2023-01-31T00:35:31;10.70;;;6.65;;
49396;SDS011;35615;41.410;2.194;2023-01-31T00:38:03;14.20;;;6.60;;
49396;SDS011;35615;41.410;2.194;2023-01-31T00:40:53;13.02;;;6.20;;
49396;SDS011;35615;41.410;2.194;2023-01-31T00:43:25;14.25;;;6.68;;
49396;SDS011;35615;41.410;2.194;2023-01-31T00:45:55;11.75;;;5.85;;
49396;SDS011;35615;41.410;2.194;2023-01-31T00:48:23;12.85;;;6.60;;
49396;SDS011;35615;41.410;2.194;2023-01-31T00:51:03;13.30;;;6.30;;
49396;SDS011;35615;41.410;2.194;2023-01-31T00:53:33;12.63;;;6.15;;
49396;SDS011;35615;41.410;2.194;2023-01-31T00:56:19;10.73;;;6.03;;
49396;SDS011;35615;41.410;2.194;2023-01-31T00:58:55;14.52;;;5.95;;
49396;SDS011;35615;41.410;2.194;2023-01-31T01:01:28;14.65;;;6.28;;
49396;SDS011;35615;41.410;2.194;2023-01-31T01:03:56;12.15;;;6.22;;
49396;SDS011;35615;41.410;2.194;2023-01-31T01:06:38;11.77;;;7.10;;
49396;SDS011;35615;41.410;2.194;2023-01-31T01:09:13;11.18;;;6.03;;
49396;SDS011;35615;41.410;2.194;2023-01-31T01:11:44;9.25;;;6.10;;
49396;SDS011;35615;41.410;2.194;2023-01-31T01:14:17;12.23;;;6.75;;
49396;SDS011;35615;41.410;2.194;2023-01-31T01:16:47;13.32;;;6.13;;
49396;SDS011;35615;41.410;2.194;2023-01-31T01:19:18;12.93;;;5.40;;
49396;SDS011;35615;41.410;2.194;2023-01-31T01:22:00;12.23;;;6.25;;
49396;SDS011;35615;41.410;2.194;2023-01-31T01:24:33;13.27;;;6.33;;
49396;SDS011;35615;41.410;2.194;2023-01-31T01:27:04;12.80;;;6.13;;
49396;SDS011;35615;41.410;2.194;2023-01-31T01:29:51;12.63;;;6.50;;
49396;SDS011;35615;41.410;2.194;2023-01-31T01:32:22;9.75;;;6.05;;
49396;SDS011;35615;41.410;2.194;2023-01-31T01:34:52;11.10;;;6.43;;
49396;SDS011;35615;41.410;2.194;2023-01-31T01:37:19;12.77;;;6.32;;
49396;SDS011;35615;41.410;2.194;2023-01-31T01:39:49;14.07;;;6.47;;
49396;SDS011;35615;41.410;2.194;2023-01-31T01:42:22;13.40;;;5.95;;
49396;SDS011;35615;41.410;2.194;2023-01-31T01:44:55;13.18;;;6.28;;
49396;SDS011;35615;41.410;2.194;2023-01-31T01:50:31;12.10;;;6.45;;
49396;SDS011;35615;41.410;2.194;2023-01-31T01:53:13;17.10;;;8.82;;
49396;SDS011;35615;41.410;2.194;2023-01-31T01:56:10;13.18;;;6.32;;
49396;SDS011;35615;41.410;2.194;2023-01-31T01:58:47;12.15;;;6.55;;
49396;SDS011;35615;41.410;2.194;2023-01-31T02:01:48;15.98;;;6.75;;
49396;SDS011;35615;41.410;2.194;2023-01-31T02:04:26;16.08;;;7.05;;
49396;SDS011;35615;41.410;2.194;2023-01-31T02:07:01;10.55;;;6.50;;
49396;SDS011;35615;41.410;2.194;2023-01-31T02:10:19;10.43;;;5.85;;
49396;SDS011;35615;41.410;2.194;2023-01-31T02:13:00;16.25;;;7.20;;
49396;SDS011;35615;41.410;2.194;2023-01-31T02:15:28;11.55;;;5.75;;
49396;SDS011;35615;41.410;2.194;2023-01-31T02:18:10;14.45;;;7.35;;
49396;SDS011;35615;41.410;2.194;2023-01-31T02:36:01;10.18;;;6.70;;
49396;SDS011;35615;41.410;2.194;2023-01-31T02:50:31;17.92;;;6.68;;
49396;SDS011;35615;41.410;2.194;2023-01-31T02:53:30;11.75;;;6.95;;
49396;SDS011;35615;41.410;2.194;2023-01-31T03:02:30;10.30;;;6.22;;
49396;SDS011;35615;41.410;2.194;2023-01-31T03:05:07;17.38;;;7.68;;
49396;SDS011;35615;41.410;2.194;2023-01-31T03:07:43;13.38;;;6.57;;
49396;SDS011;35615;41.410;2.194;2023-01-31T03:16:30;10.77;;;6.45;;
49396;SDS011;35615;41.410;2.194;2023-01-31T03:19:45;10.02;;;6.07;;
49396;SDS011;35615;41.410;2.194;2023-01-31T03:23:35;8.75;;;5.70;;
49396;SDS011;35615;41.410;2.194;2023-01-31T03:25:48;12.05;;;6.03;;
49396;SDS011;35615;41.410;2.194;2023-01-31T03:28:28;9.60;;;5.80;;
49396;SDS011;35615;41.410;2.194;2023-01-31T03:31:22;9.25;;;5.75;;
49396;SDS011;35615;41.410;2.194;2023-01-31T03:34:08;9.20;;;5.38;;
49396;SDS011;35615;41.410;2.194;2023-01-31T03:40:18;17.35;;;5.60;;
49396;SDS011;35615;41.410;2.194;2023-01-31T03:46:21;9.18;;;5.63;;
49396;SDS011;35615;41.410;2.194;2023-01-31T03:49:03;10.35;;;6.07;;
49396;SDS011;35615;41.410;2.194;2023-01-31T03:51:53;8.45;;;5.55;;
49396;SDS011;35615;41.410;2.194;2023-01-31T03:54:45;10.55;;;6.10;;
49396;SDS011;35615;41.410;2.194;2023-01-31T03:57:24;11.27;;;6.18;;
49396;SDS011;35615;41.410;2.194;2023-01-31T04:00:17;11.07;;;5.32;;
49396;SDS011;35615;41.410;2.194;2023-01-31T04:03:01;12.48;;;7.32;;
49396;SDS011;35615;41.410;2.194;2023-01-31T04:05:44;10.35;;;5.93;;
49396;SDS011;35615;41.410;2.194;2023-01-31T04:08:20;14.65;;;5.85;;
49396;SDS011;35615;41.410;2.194;2023-01-31T04:11:08;9.60;;;5.30;;
49396;SDS011;35615;41.410;2.194;2023-01-31T04:13:48;16.00;;;7.00;;
49396;SDS011;35615;41.410;2.194;2023-01-31T04:16:29;12.55;;;6.70;;
49396;SDS011;35615;41.410;2.194;2023-01-31T04:19:08;19.55;;;7.03;;
49396;SDS011;35615;41.410;2.194;2023-01-31T04:21:40;11.38;;;6.68;;
49396;SDS011;35615;41.410;2.194;2023-01-31T04:27:10;18.70;;;7.32;;
49396;SDS011;35615;41.410;2.194;2023-01-31T04:29:52;14.55;;;6.63;;
49396;SDS011;35615;41.410;2.194;2023-01-31T04:32:23;11.73;;;6.55;;
49396;SDS011;35615;41.410;2.194;2023-01-31T04:37:55;12.32;;;5.57;;
49396;SDS011;35615;41.410;2.194;2023-01-31T04:40:28;7.97;;;4.72;;
49396;SDS011;35615;41.410;2.194;2023-01-31T04:43:11;10.20;;;5.03;;
49396;SDS011;35615;41.410;2.194;2023-01-31T04:45:46;9.52;;;4.60;;
49396;SDS011;35615;41.410;2.194;2023-01-31T04:51:16;12.98;;;4.50;;
49396;SDS011;35615;41.410;2.194;2023-01-31T04:53:54;14.73;;;5.68;;
49396;SDS011;35615;41.410;2.194;2023-01-31T04:56:30;8.07;;;5.28;;
49396;SDS011;35615;41.410;2.194;2023-01-31T05:02:52;8.88;;;5.25;;
49396;SDS011;35615;41.410;2.194;2023-01-31T05:05:23;8.77;;;5.30;;
49396;SDS011;35615;41.410;2.194;2023-01-31T05:07:53;12.07;;;5.90;;
49396;SDS011;35615;41.410;2.194;2023-01-31T05:10:24;9.77;;;5.65;;
49396;SDS011;35615;41.410;2.194;2023-01-31T05:13:05;8.50;;;5.43;;
49396;SDS011;35615;41.410;2.194;2023-01-31T05:15:35;9.98;;;5.38;;
49396;SDS011;35615;41.410;2.194;2023-01-31T05:18:06;10.80;;;5.35;;
49396;SDS011;35615;41.410;2.194;2023-01-31T05:20:44;10.00;;;5.57;;
49396;SDS011;35615;41.410;2.194;2023-01-31T05:23:17;11.05;;;5.55;;
49396;SDS011;35615;41.410;2.194;2023-01-31T05:25:50;12.10;;;5.43;;
49396;SDS011;35615;41.410;2.194;2023-01-31T05:28:18;8.48;;;5.25;;
49396;SDS011;35615;41.410;2.194;2023-01-31T05:31:06;11.98;;;5.30;;
49396;SDS011;35615;41.410;2.194;2023-01-31T05:33:35;11.98;;;5.82;;
49396;SDS011;35615;41.410;2.194;2023-01-31T05:36:14;13.25;;;5.32;;
49396;SDS011;35615;41.410;2.194;2023-01-31T05:38:45;11.50;;;5.47;;
49396;SDS011;35615;41.410;2.194;2023-01-31T05:41:19;9.95;;;5.93;;
49396;SDS011;35615;41.410;2.194;2023-01-31T05:43:46;9.30;;;5.30;;
49396;SDS011;35615;41.410;2.194;2023-01-31T05:46:28;13.40;;;5.60;;
49396;SDS011;35615;41.410;2.194;2023-01-31T05:48:56;10.55;;;5.72;;
49396;SDS011;35615;41.410;2.194;2023-01-31T05:51:30;13.75;;;5.35;;
49396;SDS011;35615;41.410;2.194;2023-01-31T05:54:15;10.70;;;5.45;;
49396;SDS011;35615;41.410;2.194;2023-01-31T05:56:53;9.85;;;5.50;;
49396;SDS011;35615;41.410;2.194;2023-01-31T05:59:28;7.47;;;4.63;;
49396;SDS011;35615;41.410;2.194;2023-01-31T06:01:57;8.63;;;4.78;;
49396;SDS011;35615;41.410;2.194;2023-01-31T06:04:34;10.18;;;5.40;;
49396;SDS011;35615;41.410;2.194;2023-01-31T06:07:10;9.57;;;4.78;;
49396;SDS011;35615;41.410;2.194;2023-01-31T06:09:37;8.00;;;4.63;;
49396;SDS011;35615;41.410;2.194;2023-01-31T06:12:23;8.13;;;4.85;;
49396;SDS011;35615;41.410;2.194;2023-01-31T06:14:51;7.88;;;4.45;;
49396;SDS011;35615;41.410;2.194;2023-01-31T06:17:18;8.90;;;5.07;;
49396;SDS011;35615;41.410;2.194;2023-01-31T06:19:57;8.43;;;5.00;;
49396;SDS011;35615;41.410;2.194;2023-01-31T06:22:41;7.35;;;4.43;;
49396;SDS011;35615;41.410;2.194;2023-01-31T06:25:11;16.17;;;5.22;;
49396;SDS011;35615;41.410;2.194;2023-01-31T06:27:41;10.18;;;5.13;;
49396;SDS011;35615;41.410;2.194;2023-01-31T06:33:12;9.20;;;4.82;;
49396;SDS011;35615;41.410;2.194;2023-01-31T06:35:57;9.07;;;4.60;;
49396;SDS011;35615;41.410;2.194;2023-01-31T06:38:31;9.88;;;5.10;;
49396;SDS011;35615;41.410;2.194;2023-01-31T06:41:02;10.57;;;5.30;;
49396;SDS011;35615;41.410;2.194;2023-01-31T06:43:35;9.13;;;5.25;;
49396;SDS011;35615;41.410;2.194;2023-01-31T06:46:03;9.50;;;5.07;;
49396;SDS011;35615;41.410;2.194;2023-01-31T06:48:32;8.80;;;5.15;;
49396;SDS011;35615;41.410;2.194;2023-01-31T06:51:07;10.13;;;5.30;;
49396;SDS011;35615;41.410;2.194;2023-01-31T06:53:42;9.00;;;5.13;;
49396;SDS011;35615;41.410;2.194;2023-01-31T06:56:19;13.23;;;5.07;;
49396;SDS011;35615;41.410;2.194;2023-01-31T06:58:47;11.98;;;6.07;;
49396;SDS011;35615;41.410;2.194;2023-01-31T07:01:18;10.52;;;5.57;;
49396;SDS011;35615;41.410;2.194;2023-01-31T07:03:53;8.85;;;6.05;;
49396;SDS011;35615;41.410;2.194;2023-01-31T07:06:29;10.05;;;5.93;;
49396;SDS011;35615;41.410;2.194;2023-01-31T07:08:56;10.82;;;5.72;;
49396;SDS011;35615;41.410;2.194;2023-01-31T07:11:24;10.40;;;5.75;;
49396;SDS011;35615;41.410;2.194;2023-01-31T07:13:51;11.55;;;5.88;;
49396;SDS011;35615;41.410;2.194;2023-01-31T07:16:22;11.45;;;5.65;;
49396;SDS011;35615;41.410;2.194;2023-01-31T07:18:56;15.45;;;5.93;;
49396;SDS011;35615;41.410;2.194;2023-01-31T07:21:28;20.45;;;6.60;;
49396;SDS011;35615;41.410;2.194;2023-01-31T07:24:02;9.38;;;5.70;;
49396;SDS011;35615;41.410;2.194;2023-01-31T07:26:36;14.10;;;5.65;;
49396;SDS011;35615;41.410;2.194;2023-01-31T07:29:04;11.35;;;6.05;;
49396;SDS011;35615;41.410;2.194;2023-01-31T07:31:31;13.25;;;6.10;;
49396;SDS011;35615;41.410;2.194;2023-01-31T07:33:59;11.00;;;6.35;;
49396;SDS011;35615;41.410;2.194;2023-01-31T07:36:30;9.57;;;5.75;;
49396;SDS011;35615;41.410;2.194;2023-01-31T07:39:01;10.82;;;6.05;;
49396;SDS011;35615;41.410;2.194;2023-01-31T07:41:36;9.00;;;5.70;;
49396;SDS011;35615;41.410;2.194;2023-01-31T07:44:10;12.65;;;6.20;;
49396;SDS011;35615;41.410;2.194;2023-01-31T07:46:39;15.20;;;6.85;;
49396;SDS011;35615;41.410;2.194;2023-01-31T07:49:14;19.35;;;6.60;;
49396;SDS011;35615;41.410;2.194;2023-01-31T07:51:49;15.73;;;6.72;;
49396;SDS011;35615;41.410;2.194;2023-01-31T07:56:49;11.73;;;6.30;;
49396;SDS011;35615;41.410;2.194;2023-01-31T07:59:16;16.17;;;6.93;;
49396;SDS011;35615;41.410;2.194;2023-01-31T08:01:56;12.82;;;6.60;;
49396;SDS011;35615;41.410;2.194;2023-01-31T08:04:42;11.10;;;6.55;;
49396;SDS011;35615;41.410;2.194;2023-01-31T08:07:20;17.75;;;7.55;;
49396;SDS011;35615;41.410;2.194;2023-01-31T08:10:03;14.27;;;7.40;;
49396;SDS011;35615;41.410;2.194;2023-01-31T08:12:39;14.30;;;6.22;;
49396;SDS011;35615;41.410;2.194;2023-01-31T08:15:12;18.10;;;7.28;;
49396;SDS011;35615;41.410;2.194;2023-01-31T08:17:42;11.10;;;7.15;;
49396;SDS011;35615;41.410;2.194;2023-01-31T08:20:23;10.68;;;6.53;;
49396;SDS011;35615;41.410;2.194;2023-01-31T08:22:59;17.00;;;9.35;;
49396;SDS011;35615;41.410;2.194;2023-01-31T08:25:35;16.90;;;8.05;;
49396;SDS011;35615;41.410;2.194;2023-01-31T08:28:19;19.20;;;7.18;;
49396;SDS011;35615;41.410;2.194;2023-01-31T08:30:47;15.70;;;7.93;;
49396;SDS011;35615;41.410;2.194;2023-01-31T08:33:45;18.13;;;7.10;;
49396;SDS011;35615;41.410;2.194;2023-01-31T08:39:00;13.55;;;6.95;;
49396;SDS011;35615;41.410;2.194;2023-01-31T08:41:40;12.50;;;7.22;;
49396;SDS011;35615;41.410;2.194;2023-01-31T08:44:33;20.85;;;7.53;;
49396;SDS011;35615;41.410;2.194;2023-01-31T08:47:17;13.98;;;6.93;;
49396;SDS011;35615;41.410;2.194;2023-01-31T08:53:03;14.13;;;8.33;;
49396;SDS011;35615;41.410;2.194;2023-01-31T08:55:41;30.08;;;7.55;;
49396;SDS011;35615;41.410;2.194;2023-01-31T08:58:22;12.75;;;7.45;;
49396;SDS011;35615;41.410;2.194;2023-01-31T09:01:09;12.27;;;7.65;;
49396;SDS011;35615;41.410;2.194;2023-01-31T09:03:54;14.73;;;7.38;;
49396;SDS011;35615;41.410;2.194;2023-01-31T09:06:31;15.02;;;6.22;;
49396;SDS011;35615;41.410;2.194;2023-01-31T09:09:02;24.02;;;7.55;;
49396;SDS011;35615;41.410;2.194;2023-01-31T09:11:37;12.43;;;7.38;;
49396;SDS011;35615;41.410;2.194;2023-01-31T09:14:12;16.35;;;6.93;;
49396;SDS011;35615;41.410;2.194;2023-01-31T09:16:58;19.33;;;7.68;;
49396;SDS011;35615;41.410;2.194;2023-01-31T09:19:42;14.07;;;6.78;;
49396;SDS011;35615;41.410;2.194;2023-01-31T09:22:16;12.50;;;6.55;;
49396;SDS011;35615;41.410;2.194;2023-01-31T09:24:47;11.75;;;6.93;;
49396;SDS011;35615;41.410;2.194;2023-01-31T09:27:40;11.25;;;6.45;;
49396;SDS011;35615;41.410;2.194;2023-01-31T09:30:10;19.25;;;6.97;;
49396;SDS011;35615;41.410;2.194;2023-01-31T09:32:52;16.00;;;8.00;;
49396;SDS011;35615;41.410;2.194;2023-01-31T09:35:41;19.38;;;9.35;;
49396;SDS011;35615;41.410;2.194;2023-01-31T09:38:20;26.85;;;9.50;;
49396;SDS011;35615;41.410;2.194;2023-01-31T09:40:53;12.57;;;7.43;;
49396;SDS011;35615;41.410;2.194;2023-01-31T09:43:55;16.48;;;8.10;;
49396;SDS011;35615;41.410;2.194;2023-01-31T09:46:26;10.77;;;6.50;;
49396;SDS011;35615;41.410;2.194;2023-01-31T09:49:19;10.38;;;7.10;;
49396;SDS011;35615;41.410;2.194;2023-01-31T09:52:00;15.02;;;6.97;;
49396;SDS011;35615;41.410;2.194;2023-01-31T09:54:36;10.73;;;6.85;;
49396;SDS011;35615;41.410;2.194;2023-01-31T10:06:32;12.77;;;7.85;;
49396;SDS011;35615;41.410;2.194;2023-01-31T10:12:44;11.98;;;7.70;;
49396;SDS011;35615;41.410;2.194;2023-01-31T10:18:28;18.90;;;8.27;;
49396;SDS011;35615;41.410;2.194;2023-01-31T10:21:39;30.50;;;9.30;;
49396;SDS011;35615;41.410;2.194;2023-01-31T10:28:00;18.15;;;8.18;;
49396;SDS011;35615;41.410;2.194;2023-01-31T10:40:24;17.35;;;8.48;;
49396;SDS011;35615;41.410;2.194;2023-01-31T10:43:23;12.57;;;7.55;;
49396;SDS011;35615;41.410;2.194;2023-01-31T10:46:36;15.15;;;8.32;;
49396;SDS011;35615;41.410;2.194;2023-01-31T10:49:16;16.75;;;7.97;;
49396;SDS011;35615;41.410;2.194;2023-01-31T10:54:58;19.70;;;9.10;;
49396;SDS011;35615;41.410;2.194;2023-01-31T10:57:42;12.45;;;7.95;;
49396;SDS011;35615;41.410;2.194;2023-01-31T11:00:27;13.02;;;7.80;;
49396;SDS011;35615;41.410;2.194;2023-01-31T11:03:10;12.40;;;8.13;;
49396;SDS011;35615;41.410;2.194;2023-01-31T11:11:21;12.38;;;8.30;;
49396;SDS011;35615;41.410;2.194;2023-01-31T11:14:04;11.75;;;7.63;;
49396;SDS011;35615;41.410;2.194;2023-01-31T11:16:44;10.85;;;7.97;;
49396;SDS011;35615;41.410;2.194;2023-01-31T11:22:42;13.50;;;8.18;;
49396;SDS011;35615;41.410;2.194;2023-01-31T11:28:22;11.70;;;8.45;;
49396;SDS011;35615;41.410;2.194;2023-01-31T11:34:19;10.32;;;8.15;;
49396;SDS011;35615;41.410;2.194;2023-01-31T11:43:29;13.10;;;7.22;;
49396;SDS011;35615;41.410;2.194;2023-01-31T11:45:57;11.48;;;7.40;;
49396;SDS011;35615;41.410;2.194;2023-01-31T11:49:18;13.90;;;7.68;;
49396;SDS011;35615;41.410;2.194;2023-01-31T11:52:10;12.75;;;8.00;;
49396;SDS011;35615;41.410;2.194;2023-01-31T11:57:52;13.73;;;7.80;;
49396;SDS011;35615;41.410;2.194;2023-01-31T12:00:25;12.40;;;7.90;;
49396;SDS011;35615;41.410;2.194;2023-01-31T12:03:06;14.60;;;8.15;;
49396;SDS011;35615;41.410;2.194;2023-01-31T12:05:50;13.75;;;7.93;;
49396;SDS011;35615;41.410;2.194;2023-01-31T12:11:26;8.30;;;6.53;;
49396;SDS011;35615;41.410;2.194;2023-01-31T12:14:20;10.63;;;7.13;;
49396;SDS011;35615;41.410;2.194;2023-01-31T12:16:54;12.27;;;7.32;;
49396;SDS011;35615;41.410;2.194;2023-01-31T12:19:51;16.00;;;8.55;;
49396;SDS011;35615;41.410;2.194;2023-01-31T12:23:10;11.88;;;7.85;;
49396;SDS011;35615;41.410;2.194;2023-01-31T12:34:53;10.23;;;7.10;;
49396;SDS011;35615;41.410;2.194;2023-01-31T12:57:01;19.45;;;11.75;;
49396;SDS011;35615;41.410;2.194;2023-01-31T13:09:01;16.73;;;11.25;;
49396;SDS011;35615;41.410;2.194;2023-01-31T13:18:12;22.30;;;12.95;;
49396;SDS011;35615;41.410;2.194;2023-01-31T13:20:49;15.23;;;11.32;;
49396;SDS011;35615;41.410;2.194;2023-01-31T13:23:45;18.60;;;11.43;;
49396;SDS011;35615;41.410;2.194;2023-01-31T13:26:21;18.35;;;10.85;;
49396;SDS011;35615;41.410;2.194;2023-01-31T13:32:09;14.60;;;10.30;;
49396;SDS011;35615;41.410;2.194;2023-01-31T13:37:38;15.35;;;10.73;;
49396;SDS011;35615;41.410;2.194;2023-01-31T13:40:17;15.77;;;10.77;;
49396;SDS011;35615;41.410;2.194;2023-01-31T13:42:49;21.10;;;11.18;;
49396;SDS011;35615;41.410;2.194;2023-01-31T13:45:25;20.48;;;10.75;;
49396;SDS011;35615;41.410;2.194;2023-01-31T13:48:09;19.92;;;10.30;;
49396;SDS011;35615;41.410;2.194;2023-01-31T13:51:10;20.33;;;10.20;;
49396;SDS011;35615;41.410;2.194;2023-01-31T13:54:22;15.23;;;10.73;;
49396;SDS011;35615;41.410;2.194;2023-01-31T13:56:59;17.88;;;10.75;;
49396;SDS011;35615;41.410;2.194;2023-01-31T13:59:31;18.08;;;11.07;;
49396;SDS011;35615;41.410;2.194;2023-01-31T14:02:28;25.00;;;11.48;;
49396;SDS011;35615;41.410;2.194;2023-01-31T14:05:05;19.58;;;10.98;;
49396;SDS011;35615;41.410;2.194;2023-01-31T14:14:18;24.35;;;10.45;;
49396;SDS011;35615;41.410;2.194;2023-01-31T14:16:55;23.27;;;10.48;;
49396;SDS011;35615;41.410;2.194;2023-01-31T14:22:36;13.73;;;9.07;;
49396;SDS011;35615;41.410;2.194;2023-01-31T14:25:12;13.75;;;9.32;;
49396;SDS011;35615;41.410;2.194;2023-01-31T14:28:00;16.23;;;9.20;;
49396;SDS011;35615;41.410;2.194;2023-01-31T14:30:34;18.73;;;8.48;;
49396;SDS011;35615;41.410;2.194;2023-01-31T14:41:42;14.18;;;9.45;;
49396;SDS011;35615;41.410;2.194;2023-01-31T14:44:24;14.55;;;9.65;;
49396;SDS011;35615;41.410;2.194;2023-01-31T15:05:40;12.90;;;8.38;;
49396;SDS011;35615;41.410;2.194;2023-01-31T15:17:21;13.88;;;8.48;;
49396;SDS011;35615;41.410;2.194;2023-01-31T15:20:15;11.75;;;7.60;;
49396;SDS011;35615;41.410;2.194;2023-01-31T15:22:57;21.08;;;8.52;;
49396;SDS011;35615;41.410;2.194;2023-01-31T15:25:46;14.23;;;8.52;;
49396;SDS011;35615;41.410;2.194;2023-01-31T15:28:32;17.70;;;7.68;;
49396;SDS011;35615;41.410;2.194;2023-01-31T15:31:41;17.40;;;7.95;;
49396;SDS011;35615;41.410;2.194;2023-01-31T15:34:26;23.58;;;8.40;;
49396;SDS011;35615;41.410;2.194;2023-01-31T15:39:58;18.27;;;9.07;;
49396;SDS011;35615;41.410;2.194;2023-01-31T15:45:49;12.97;;;8.43;;
49396;SDS011;35615;41.410;2.194;2023-01-31T15:48:21;19.38;;;8.27;;
49396;SDS011;35615;41.410;2.194;2023-01-31T15:51:27;15.27;;;9.02;;
49396;SDS011;35615;41.410;2.194;2023-01-31T16:03:04;17.00;;;8.77;;
49396;SDS011;35615;41.410;2.194;2023-01-31T16:09:35;19.38;;;8.65;;
49396;SDS011;35615;41.410;2.194;2023-01-31T16:12:25;23.80;;;8.55;;
49396;SDS011;35615;41.410;2.194;2023-01-31T16:37:41;15.50;;;8.13;;
49396;SDS011;35615;41.410;2.194;2023-01-31T16:46:39;13.63;;;7.45;;
49396;SDS011;35615;41.410;2.194;2023-01-31T16:49:28;13.35;;;7.43;;
49396;SDS011;35615;41.410;2.194;2023-01-31T16:55:24;17.38;;;7.18;;
49396;SDS011;35615;41.410;2.194;2023-01-31T16:58:26;13.75;;;6.82;;
49396;SDS011;35615;41.410;2.194;2023-01-31T17:08:15;17.35;;;7.15;;
49396;SDS011;35615;41.410;2.194;2023-01-31T17:11:05;19.35;;;8.15;;
49396;SDS011;35615;41.410;2.194;2023-01-31T17:14:21;16.77;;;6.93;;
49396;SDS011;35615;41.410;2.194;2023-01-31T17:17:02;14.00;;;5.95;;
49396;SDS011;35615;41.410;2.194;2023-01-31T17:19:32;12.65;;;6.38;;
49396;SDS011;35615;41.410;2.194;2023-01-31T17:22:08;15.25;;;6.20;;
49396;SDS011;35615;41.410;2.194;2023-01-31T17:24:40;13.38;;;6.10;;
49396;SDS011;35615;41.410;2.194;2023-01-31T17:27:18;15.90;;;6.15;;
49396;SDS011;35615;41.410;2.194;2023-01-31T17:29:59;18.60;;;6.57;;
49396;SDS011;35615;41.410;2.194;2023-01-31T17:32:27;16.67;;;6.07;;
49396;SDS011;35615;41.410;2.194;2023-01-31T17:35:00;14.00;;;6.53;;
49396;SDS011;35615;41.410;2.194;2023-01-31T17:37:39;14.50;;;6.50;;
49396;SDS011;35615;41.410;2.194;2023-01-31T17:40:13;15.30;;;7.13;;
49396;SDS011;35615;41.410;2.194;2023-01-31T17:42:44;17.10;;;7.15;;
49396;SDS011;35615;41.410;2.194;2023-01-31T17:45:22;19.48;;;7.10;;
49396;SDS011;35615;41.410;2.194;2023-01-31T17:47:51;15.15;;;7.05;;
49396;SDS011;35615;41.410;2.194;2023-01-31T17:50:25;13.18;;;7.18;;
49396;SDS011;35615;41.410;2.194;2023-01-31T17:52:54;19.48;;;7.15;;
49396;SDS011;35615;41.410;2.194;2023-01-31T17:55:22;18.55;;;7.47;;
49396;SDS011;35615;41.410;2.194;2023-01-31T17:58:00;16.08;;;7.63;;
49396;SDS011;35615;41.410;2.194;2023-01-31T18:00:32;14.75;;;7.28;;
49396;SDS011;35615;41.410;2.194;2023-01-31T18:02:59;15.75;;;7.30;;
49396;SDS011;35615;41.410;2.194;2023-01-31T18:05:30;22.45;;;8.35;;
49396;SDS011;35615;41.410;2.194;2023-01-31T18:08:11;15.00;;;7.70;;
49396;SDS011;35615;41.410;2.194;2023-01-31T18:10:44;16.15;;;8.75;;
49396;SDS011;35615;41.410;2.194;2023-01-31T18:13:26;18.17;;;8.35;;
49396;SDS011;35615;41.410;2.194;2023-01-31T18:16:04;17.90;;;8.57;;
49396;SDS011;35615;41.410;2.194;2023-01-31T18:18:38;30.55;;;14.30;;
49396;SDS011;35615;41.410;2.194;2023-01-31T18:21:14;25.23;;;10.88;;
49396;SDS011;35615;41.410;2.194;2023-01-31T18:24:04;22.15;;;9.15;;
49396;SDS011;35615;41.410;2.194;2023-01-31T18:26:37;15.73;;;7.75;;
49396;SDS011;35615;41.410;2.194;2023-01-31T18:29:12;16.00;;;7.80;;
49396;SDS011;35615;41.410;2.194;2023-01-31T18:31:48;16.25;;;7.90;;
49396;SDS011;35615;41.410;2.194;2023-01-31T18:34:16;19.27;;;9.43;;
49396;SDS011;35615;41.410;2.194;2023-01-31T18:36:49;23.93;;;8.47;;
49396;SDS011;35615;41.410;2.194;2023-01-31T18:39:19;13.77;;;7.55;;
49396;SDS011;35615;41.410;2.194;2023-01-31T18:41:50;16.90;;;7.25;;
49396;SDS011;35615;41.410;2.194;2023-01-31T18:44:26;18.65;;;8.25;;
49396;SDS011;35615;41.410;2.194;2023-01-31T18:47:03;16.17;;;7.65;;
49396;SDS011;35615;41.410;2.194;2023-01-31T18:49:31;29.02;;;7.72;;
49396;SDS011;35615;41.410;2.194;2023-01-31T18:51:58;18.85;;;8.02;;
49396;SDS011;35615;41.410;2.194;2023-01-31T18:54:25;16.65;;;7.65;;
49396;SDS011;35615;41.410;2.194;2023-01-31T18:56:56;16.98;;;8.18;;
49396;SDS011;35615;41.410;2.194;2023-01-31T18:59:23;19.67;;;8.32;;
49396;SDS011;35615;41.410;2.194;2023-01-31T19:01:51;20.65;;;8.82;;
49396;SDS011;35615;41.410;2.194;2023-01-31T19:04:20;21.83;;;9.07;;
49396;SDS011;35615;41.410;2.194;2023-01-31T19:06:51;18.27;;;9.90;;
49396;SDS011;35615;41.410;2.194;2023-01-31T19:09:20;28.65;;;12.07;;
49396;SDS011;35615;41.410;2.194;2023-01-31T19:11:50;25.00;;;12.23;;
49396;SDS011;35615;41.410;2.194;2023-01-31T19:17:18;23.08;;;11.10;;
49396;SDS011;35615;41.410;2.194;2023-01-31T19:20:05;21.73;;;11.77;;
49396;SDS011;35615;41.410;2.194;2023-01-31T19:22:35;20.58;;;11.00;;
49396;SDS011;35615;41.410;2.194;2023-01-31T19:25:10;24.60;;;10.68;;
49396;SDS011;35615;41.410;2.194;2023-01-31T19:27:45;30.10;;;11.80;;
49396;SDS011;35615;41.410;2.194;2023-01-31T19:30:17;25.20;;;9.68;;
49396;SDS011;35615;41.410;2.194;2023-01-31T19:32:54;23.90;;;9.70;;
49396;SDS011;35615;41.410;2.194;2023-01-31T19:35:28;20.30;;;8.32;;
49396;SDS011;35615;41.410;2.194;2023-01-31T19:37:58;21.70;;;9.23;;
49396;SDS011;35615;41.410;2.194;2023-01-31T19:40:26;21.63;;;8.75;;
49396;SDS011;35615;41.410;2.194;2023-01-31T19:43:02;13.73;;;7.00;;
49396;SDS011;35615;41.410;2.194;2023-01-31T19:45:38;15.10;;;7.88;;
49396;SDS011;35615;41.410;2.194;2023-01-31T19:50:45;21.83;;;7.30;;
49396;SDS011;35615;41.410;2.194;2023-01-31T19:53:21;14.82;;;7.20;;
49396;SDS011;35615;41.410;2.194;2023-01-31T19:55:50;11.55;;;7.03;;
49396;SDS011;35615;41.410;2.194;2023-01-31T19:58:28;12.10;;;7.10;;
49396;SDS011;35615;41.410;2.194;2023-01-31T20:01:01;15.23;;;7.07;;
49396;SDS011;35615;41.410;2.194;2023-01-31T20:03:44;12.88;;;6.80;;
49396;SDS011;35615;41.410;2.194;2023-01-31T20:06:20;11.13;;;6.63;;
49396;SDS011;35615;41.410;2.194;2023-01-31T20:09:16;11.88;;;7.03;;
49396;SDS011;35615;41.410;2.194;2023-01-31T20:11:46;13.85;;;6.75;;
49396;SDS011;35615;41.410;2.194;2023-01-31T20:14:16;9.27;;;5.88;;
49396;SDS011;35615;41.410;2.194;2023-01-31T20:16:49;14.80;;;6.25;;
49396;SDS011;35615;41.410;2.194;2023-01-31T20:19:18;19.13;;;6.72;;
49396;SDS011;35615;41.410;2.194;2023-01-31T20:21:48;14.10;;;5.80;;
49396;SDS011;35615;41.410;2.194;2023-01-31T20:24:22;9.23;;;6.15;;
49396;SDS011;35615;41.410;2.194;2023-01-31T20:26:53;20.50;;;6.78;;
49396;SDS011;35615;41.410;2.194;2023-01-31T20:29:20;14.98;;;6.35;;
49396;SDS011;35615;41.410;2.194;2023-01-31T20:31:52;12.25;;;6.68;;
49396;SDS011;35615;41.410;2.194;2023-01-31T20:34:25;13.23;;;6.68;;